Time;durP1;ratioP1;P1;durP2;ratioP2;P2;SDS_P1;SDS_P2;PMS_P1;PMS_P2;Temp;Humidity;BMP_temperature;BMP_pressure;BME280_temperature;BME280_humidity;BME280_pressure;Samples;Min_cycle;Max_cycle;Signal;HPM_P1;HPM_P2
2024/04/14 00:02:19;;;;;;;4.63;3.83;;;17.50;99.90;;;;;;5379125;26;20758;-71
2024/04/14 00:04:52;;;;;;;6.55;4.22;;;17.50;99.90;;;;;;5417271;26;20244;-72
2024/04/14 00:07:21;;;;;;;5.47;4.10;;;17.50;99.90;;;;;;5423483;26;20713;-73
2024/04/14 00:09:47;;;;;;;5.43;4.32;;;17.50;99.90;;;;;;5405012;26;20320;-71
2024/04/14 00:12:12;;;;;;;7.05;4.78;;;17.40;99.90;;;;;;5388718;26;20237;-72
2024/04/14 00:14:38;;;;;;;7.97;4.85;;;17.40;99.90;;;;;;5371203;26;20350;-71
2024/04/14 00:17:04;;;;;;;9.23;4.03;;;17.40;99.90;;;;;;5414121;26;20267;-73
2024/04/14 00:19:29;;;;;;;5.18;3.90;;;17.40;99.90;;;;;;5414561;26;20288;-72
2024/04/14 00:21:55;;;;;;;4.95;3.80;;;17.30;99.90;;;;;;5413085;26;20282;-73
2024/04/14 00:24:20;;;;;;;8.13;4.53;;;17.30;99.90;;;;;;5408176;26;20273;-71
2024/04/14 00:26:48;;;;;;;7.00;4.57;;;17.20;99.90;;;;;;5389409;26;20273;-72
2024/04/14 00:29:14;;;;;;;6.25;3.78;;;17.10;99.90;;;;;;5377544;26;20238;-72
2024/04/14 00:31:39;;;;;;;6.85;4.20;;;17.10;99.90;;;;;;5413890;26;20775;-72
2024/04/14 00:34:05;;;;;;;6.75;4.57;;;17.10;99.90;;;;;;5386980;26;20236;-73
2024/04/14 00:36:31;;;;;;;6.95;4.47;;;17.00;99.90;;;;;;5397064;26;20628;-72
2024/04/14 00:38:56;;;;;;;7.50;4.53;;;17.00;99.90;;;;;;5412668;26;20313;-74
2024/04/14 00:41:22;;;;;;;6.35;4.15;;;17.00;99.90;;;;;;5411590;26;20743;-73
2024/04/14 00:43:48;;;;;;;10.52;3.85;;;17.00;99.90;;;;;;5386858;26;20664;-71
2024/04/14 00:46:13;;;;;;;6.97;4.20;;;17.00;99.90;;;;;;5394522;26;20695;-73
2024/04/14 00:48:40;;;;;;;7.55;3.78;;;17.00;99.90;;;;;;5414279;26;20249;-72
2024/04/14 00:51:07;;;;;;;5.55;4.07;;;16.90;99.90;;;;;;5413336;26;20271;-72
2024/04/14 00:53:33;;;;;;;7.70;4.13;;;16.90;99.90;;;;;;5388858;26;20283;-72
2024/04/14 00:55:59;;;;;;;4.35;3.67;;;16.90;99.90;;;;;;5387899;26;20711;-73
2024/04/14 00:58:25;;;;;;;4.90;4.05;;;16.90;99.90;;;;;;5409400;26;20241;-72
2024/04/14 01:00:52;;;;;;;5.43;4.82;;;16.80;99.90;;;;;;5416112;26;20240;-72
2024/04/14 01:03:18;;;;;;;5.00;4.03;;;16.70;99.90;;;;;;5416122;26;20601;-73
2024/04/14 01:05:44;;;;;;;4.38;3.97;;;16.70;99.90;;;;;;5416226;26;20233;-73
2024/04/14 01:08:11;;;;;;;6.47;4.30;;;16.70;99.90;;;;;;5405398;26;20288;-73
2024/04/14 01:10:38;;;;;;;6.05;4.45;;;16.70;99.90;;;;;;5388092;26;20278;-72
2024/04/14 01:13:04;;;;;;;5.15;3.83;;;16.70;99.90;;;;;;5402051;26;20237;-73
2024/04/14 01:15:31;;;;;;;6.97;4.10;;;16.60;99.90;;;;;;5401537;26;20255;-72
2024/04/14 01:17:57;;;;;;;6.07;4.47;;;16.70;99.90;;;;;;5385657;26;20241;-73
2024/04/14 01:20:22;;;;;;;4.85;4.05;;;16.60;99.90;;;;;;5410883;26;20245;-73
2024/04/14 01:22:49;;;;;;;8.95;5.03;;;16.60;99.90;;;;;;5404924;26;20307;-72
2024/04/14 01:25:15;;;;;;;7.07;4.50;;;16.60;99.90;;;;;;5382090;26;20284;-71
2024/04/14 01:27:40;;;;;;;8.13;5.35;;;16.60;99.90;;;;;;5381416;26;20229;-72
2024/04/14 01:30:07;;;;;;;5.75;4.72;;;16.50;99.90;;;;;;5387008;26;20726;-73
2024/04/14 01:32:34;;;;;;;6.88;4.32;;;16.50;99.90;;;;;;5381122;26;20242;-72
2024/04/14 01:35:00;;;;;;;7.15;5.13;;;16.50;99.90;;;;;;5408010;26;20580;-72
2024/04/14 01:37:26;;;;;;;11.25;5.20;;;16.50;99.90;;;;;;5384654;26;20242;-73
2024/04/14 01:39:51;;;;;;;6.70;4.55;;;16.50;99.90;;;;;;5416370;26;20275;-72
2024/04/14 01:42:17;;;;;;;6.07;4.78;;;16.50;99.90;;;;;;5413720;26;20275;-71
2024/04/14 01:44:43;;;;;;;7.68;4.63;;;16.50;99.90;;;;;;5400821;26;20816;-72
2024/04/14 01:47:08;;;;;;;6.40;4.38;;;16.40;99.90;;;;;;5386209;26;20242;-72
2024/04/14 01:49:34;;;;;;;6.72;4.70;;;16.40;99.90;;;;;;5380293;26;20280;-71
2024/04/14 01:52:00;;;;;;;6.95;4.78;;;16.40;99.90;;;;;;5380706;26;20233;-72
2024/04/14 01:54:25;;;;;;;5.78;4.10;;;16.50;99.90;;;;;;5413319;26;20271;-72
2024/04/14 01:56:51;;;;;;;6.25;4.97;;;16.50;99.90;;;;;;5414376;26;20237;-71
2024/04/14 01:59:16;;;;;;;5.85;4.50;;;16.50;99.90;;;;;;5406952;26;20242;-73
2024/04/14 02:01:42;;;;;;;6.78;4.50;;;16.40;99.90;;;;;;5402792;26;20236;-72
2024/04/14 02:04:07;;;;;;;5.95;4.63;;;16.40;99.90;;;;;;5386393;26;20366;-71
2024/04/14 02:06:33;;;;;;;7.85;4.97;;;16.40;99.90;;;;;;5413686;26;20695;-72
2024/04/14 02:08:59;;;;;;;5.47;4.65;;;16.40;99.90;;;;;;5413377;26;20338;-73
2024/04/14 02:11:24;;;;;;;4.40;3.97;;;16.40;99.90;;;;;;5407600;26;20236;-72
2024/04/14 02:13:50;;;;;;;7.63;5.38;;;16.40;99.90;;;;;;5377608;26;20716;-72
2024/04/14 02:16:15;;;;;;;11.30;5.15;;;16.40;99.90;;;;;;5380116;26;20276;-72
2024/04/14 02:18:41;;;;;;;5.47;4.68;;;16.40;99.90;;;;;;5379908;26;20821;-72
2024/04/14 02:21:07;;;;;;;5.07;4.57;;;16.40;99.90;;;;;;5394964;26;20680;-71
2024/04/14 02:23:32;;;;;;;5.72;5.13;;;16.40;99.90;;;;;;5421507;26;20245;-74
2024/04/14 02:25:59;;;;;;;4.53;4.13;;;16.40;99.90;;;;;;5391152;26;20345;-73
2024/04/14 02:28:25;;;;;;;5.78;4.55;;;16.40;99.90;;;;;;5380674;26;20279;-73
2024/04/14 02:30:51;;;;;;;7.03;5.07;;;16.40;99.90;;;;;;5383048;26;20237;-72
2024/04/14 02:33:17;;;;;;;8.68;5.18;;;16.30;99.90;;;;;;5382537;26;20238;-73
2024/04/14 02:36:00;;;;;;;6.80;4.93;;;16.30;99.90;;;;;;5389319;26;20241;-73
2024/04/14 02:38:26;;;;;;;6.40;4.32;;;16.30;99.90;;;;;;5410948;26;20271;-73
2024/04/14 02:41:00;;;;;;;5.00;4.53;;;16.30;99.90;;;;;;5380478;26;20372;-73
2024/04/14 02:43:26;;;;;;;5.63;4.70;;;16.30;99.90;;;;;;5399513;26;20241;-73
2024/04/14 02:45:53;;;;;;;10.38;4.72;;;16.30;99.90;;;;;;5416647;26;20781;-74
2024/04/14 02:48:19;;;;;;;5.35;4.85;;;16.30;99.90;;;;;;5397330;26;20368;-72
2024/04/14 02:50:45;;;;;;;6.93;4.90;;;16.20;99.90;;;;;;5402018;26;20700;-72
2024/04/14 02:53:11;;;;;;;11.10;4.95;;;16.20;99.90;;;;;;5400846;26;20314;-72
2024/04/14 02:55:37;;;;;;;9.68;5.13;;;16.20;99.90;;;;;;5416102;26;20340;-73
2024/04/14 02:58:04;;;;;;;8.25;4.88;;;16.20;99.90;;;;;;5417075;26;20345;-72
2024/04/14 03:00:30;;;;;;;7.80;5.57;;;16.20;99.90;;;;;;5412148;26;20392;-73
2024/04/14 03:02:55;;;;;;;6.55;5.63;;;16.20;99.90;;;;;;5390033;26;20389;-71
2024/04/14 03:05:22;;;;;;;7.63;4.85;;;16.10;99.90;;;;;;5397495;26;20341;-73
2024/04/14 03:07:51;;;;;;;7.90;5.05;;;16.20;99.90;;;;;;5412786;26;20262;-72
2024/04/14 03:10:16;;;;;;;5.07;4.38;;;16.20;99.90;;;;;;5414532;26;20264;-72
2024/04/14 03:12:42;;;;;;;9.35;4.55;;;16.20;99.90;;;;;;5414538;26;20237;-71
2024/04/14 03:15:08;;;;;;;6.57;5.47;;;16.10;99.90;;;;;;5383700;26;20750;-72
2024/04/14 03:17:34;;;;;;;5.60;5.00;;;16.00;99.90;;;;;;5395068;26;20739;-72
2024/04/14 03:19:59;;;;;;;8.35;5.30;;;16.00;99.90;;;;;;5378399;26;20233;-72
2024/04/14 03:22:25;;;;;;;6.20;5.07;;;16.00;99.90;;;;;;5407149;26;20245;-72
2024/04/14 03:24:51;;;;;;;7.70;5.03;;;16.00;99.90;;;;;;5390934;26;20266;-73
2024/04/14 03:27:16;;;;;;;5.43;4.60;;;16.00;99.90;;;;;;5378431;26;20288;-72
2024/04/14 03:29:45;;;;;;;7.53;4.72;;;16.00;99.90;;;;;;5379298;26;20276;-72
2024/04/14 03:32:10;;;;;;;6.95;4.75;;;16.00;99.90;;;;;;5378891;26;20237;-72
2024/04/14 03:34:36;;;;;;;5.50;4.57;;;16.00;99.90;;;;;;5378543;26;20723;-72
2024/04/14 03:37:02;;;;;;;7.00;4.53;;;16.00;99.90;;;;;;5393689;26;20236;-71
2024/04/14 03:39:27;;;;;;;5.90;4.88;;;16.00;99.90;;;;;;5388358;26;20244;-73
2024/04/14 03:41:55;;;;;;;8.02;5.15;;;16.00;99.90;;;;;;5390449;26;20234;-73
2024/04/14 03:44:21;;;;;;;8.20;5.38;;;15.90;99.90;;;;;;5386557;26;20242;-73
2024/04/14 03:46:46;;;;;;;5.35;4.85;;;15.90;99.90;;;;;;5401311;26;20279;-71
2024/04/14 03:49:12;;;;;;;6.63;4.50;;;15.90;99.90;;;;;;5406539;26;20241;-71
2024/04/14 03:51:37;;;;;;;8.73;5.18;;;15.90;99.90;;;;;;5378267;26;20281;-72
2024/04/14 03:54:03;;;;;;;7.93;5.28;;;15.90;99.90;;;;;;5384199;26;20229;-71
2024/04/14 03:56:29;;;;;;;6.78;4.60;;;15.90;99.90;;;;;;5382761;26;20285;-73
2024/04/14 03:58:55;;;;;;;6.05;4.63;;;15.90;99.90;;;;;;5409226;26;20291;-73
2024/04/14 04:01:21;;;;;;;10.27;4.93;;;16.00;99.90;;;;;;5415969;26;20236;-73
2024/04/14 04:03:46;;;;;;;6.00;4.75;;;16.00;99.90;;;;;;5398549;26;20340;-72
2024/04/14 04:06:12;;;;;;;7.45;4.57;;;16.00;99.90;;;;;;5385200;26;20246;-73
2024/04/14 04:08:37;;;;;;;5.70;5.20;;;16.00;99.90;;;;;;5407377;26;20268;-72
2024/04/14 04:11:05;;;;;;;7.38;5.07;;;15.90;99.90;;;;;;5406442;26;20240;-73
2024/04/14 04:13:32;;;;;;;5.28;4.43;;;16.00;99.90;;;;;;5419347;26;20228;-74
2024/04/14 04:16:05;;;;;;;5.45;4.63;;;15.90;99.90;;;;;;5418471;26;20237;-72
2024/04/14 04:18:32;;;;;;;7.22;4.28;;;15.90;99.90;;;;;;5396851;26;20233;-72
2024/04/14 04:20:59;;;;;;;6.68;4.70;;;15.90;99.90;;;;;;5405949;26;20246;-73
2024/04/14 04:23:29;;;;;;;5.15;4.10;;;15.90;99.90;;;;;;5381420;26;20272;-71
2024/04/14 04:26:00;;;;;;;5.15;4.07;;;15.80;99.90;;;;;;5426028;26;20237;-72
2024/04/14 04:28:29;;;;;;;7.93;4.85;;;15.90;99.90;;;;;;5415229;26;20722;-72
2024/04/14 04:30:56;;;;;;;6.47;4.72;;;15.90;99.90;;;;;;5416197;26;20311;-72
2024/04/14 04:33:25;;;;;;;6.72;4.15;;;15.80;99.90;;;;;;5411688;26;20236;-72
2024/04/14 04:35:55;;;;;;;5.15;4.65;;;15.80;99.90;;;;;;5380837;26;20238;-73
2024/04/14 04:38:22;;;;;;;6.70;4.63;;;15.80;99.90;;;;;;5350053;26;20624;-71
2024/04/14 04:40:48;;;;;;;8.45;4.57;;;15.80;99.90;;;;;;5399977;26;20352;-73
2024/04/14 04:43:14;;;;;;;6.18;4.18;;;15.80;99.90;;;;;;5409921;26;20738;-73
2024/04/14 04:45:39;;;;;;;6.82;5.05;;;15.80;99.90;;;;;;5395678;26;20237;-73
2024/04/14 04:48:06;;;;;;;5.65;4.32;;;15.90;99.90;;;;;;5409137;26;20257;-73
2024/04/14 04:50:31;;;;;;;8.18;4.30;;;15.90;99.90;;;;;;5380777;26;20257;-73
2024/04/14 04:52:57;;;;;;;4.80;3.97;;;16.00;99.90;;;;;;5413801;26;20427;-73
2024/04/14 04:55:22;;;;;;;4.85;4.43;;;16.00;99.90;;;;;;5413824;26;20285;-73
2024/04/14 04:57:48;;;;;;;5.93;4.78;;;16.00;99.90;;;;;;5401228;26;20238;-71
2024/04/14 05:00:15;;;;;;;6.47;5.10;;;16.00;99.90;;;;;;5385425;26;20572;-72
2024/04/14 05:02:40;;;;;;;5.32;4.85;;;16.00;99.90;;;;;;5417486;26;20224;-72
2024/04/14 05:05:06;;;;;;;4.90;4.20;;;16.00;99.90;;;;;;5415871;26;20237;-72
2024/04/14 05:07:35;;;;;;;4.78;4.22;;;16.00;99.90;;;;;;5415492;26;20245;-71
2024/04/14 05:10:00;;;;;;;4.43;4.03;;;16.00;99.90;;;;;;5415788;26;20579;-72
2024/04/14 05:12:26;;;;;;;7.30;4.38;;;16.10;99.90;;;;;;5387675;26;20281;-73
2024/04/14 05:14:51;;;;;;;7.10;4.03;;;16.20;99.90;;;;;;5382744;26;20237;-73
2024/04/14 05:17:17;;;;;;;6.38;4.18;;;16.20;99.90;;;;;;5417464;26;20245;-74
2024/04/14 05:19:43;;;;;;;6.28;4.97;;;16.20;99.90;;;;;;5398682;26;20233;-71
2024/04/14 05:22:08;;;;;;;6.60;4.65;;;16.30;99.90;;;;;;5381745;26;20242;-72
2024/04/14 05:24:34;;;;;;;7.15;4.70;;;16.30;99.90;;;;;;5379502;26;20565;-72
2024/04/14 05:27:00;;;;;;;5.22;4.53;;;16.40;99.90;;;;;;5379751;26;20249;-72
2024/04/14 05:29:27;;;;;;;4.45;3.63;;;16.40;99.90;;;;;;5404676;26;20300;-71
2024/04/14 05:31:53;;;;;;;5.65;4.22;;;16.60;99.90;;;;;;5395539;26;20604;-72
2024/04/14 05:34:19;;;;;;;5.63;3.83;;;16.90;99.90;;;;;;5395632;26;20275;-73
2024/04/14 05:36:45;;;;;;;4.07;3.67;;;17.50;99.90;;;;;;5386199;26;20633;-73
2024/04/14 05:39:10;;;;;;;4.32;3.92;;;18.00;99.90;;;;;;5421465;21;20594;-72
2024/04/14 05:41:36;;;;;;;6.68;4.50;;;18.40;99.90;;;;;;5456421;26;20286;-71
2024/04/14 05:44:01;;;;;;;5.00;3.80;;;18.80;99.90;;;;;;5477350;26;20278;-70
2024/04/14 05:46:27;;;;;;;5.13;3.30;;;19.30;99.90;;;;;;5461847;26;20235;-71
2024/04/14 05:48:53;;;;;;;5.60;3.40;;;19.70;99.90;;;;;;5452854;26;20567;-71
2024/04/14 05:51:19;;;;;;;4.45;3.78;;;20.00;99.90;;;;;;5452773;26;20585;-71
2024/04/14 05:53:46;;;;;;;4.38;3.80;;;20.50;99.90;;;;;;5421088;26;20258;-71
2024/04/14 05:56:11;;;;;;;5.57;3.70;;;20.40;99.90;;;;;;5451525;26;20569;-70
2024/04/14 05:58:37;;;;;;;6.05;2.95;;;20.30;99.90;;;;;;5420417;26;20228;-70
2024/04/14 06:01:07;;;;;;;3.55;2.83;;;20.30;99.90;;;;;;5452552;26;20239;-70
2024/04/14 06:03:33;;;;;;;5.03;3.42;;;20.20;99.90;;;;;;5452571;26;20336;-71
2024/04/14 06:06:00;;;;;;;3.22;2.90;;;20.10;99.90;;;;;;5453884;26;20550;-70
2024/04/14 06:08:26;;;;;;;4.05;2.63;;;19.90;99.90;;;;;;5440180;26;20231;-71
2024/04/14 06:10:51;;;;;;;3.30;2.70;;;19.90;99.90;;;;;;5455897;26;20248;-71
2024/04/14 06:13:17;;;;;;;3.35;3.05;;;19.90;99.90;;;;;;5446528;26;20228;-70
2024/04/14 06:15:44;;;;;;;3.65;2.70;;;20.00;99.90;;;;;;5419878;26;20390;-70
2024/04/14 06:18:10;;;;;;;3.60;3.30;;;20.10;99.90;;;;;;5419241;26;20248;-71
2024/04/14 06:20:38;;;;;;;5.95;2.88;;;20.30;99.90;;;;;;5452290;26;20282;-71
2024/04/14 06:23:04;;;;;;;3.65;3.05;;;20.40;99.90;;;;;;5419175;26;20278;-70
2024/04/14 06:25:30;;;;;;;4.82;3.05;;;20.20;99.90;;;;;;5450967;26;20228;-71
2024/04/14 06:27:56;;;;;;;3.15;2.72;;;20.20;99.90;;;;;;5452260;26;20281;-71
2024/04/14 06:30:22;;;;;;;3.15;2.53;;;20.30;99.90;;;;;;5451078;26;20714;-71
2024/04/14 06:32:49;;;;;;;4.82;2.67;;;20.30;99.90;;;;;;5451926;26;20314;-71
2024/04/14 06:35:14;;;;;;;3.03;2.50;;;20.30;99.90;;;;;;5451096;26;20235;-71
2024/04/14 06:37:40;;;;;;;4.22;2.40;;;20.40;99.90;;;;;;5419784;26;21173;-71
2024/04/14 06:40:06;;;;;;;5.35;2.63;;;20.70;99.90;;;;;;5405672;26;20235;-70
2024/04/14 06:42:32;;;;;;;4.15;2.60;;;20.80;99.90;;;;;;5457836;26;20278;-71
2024/04/14 06:44:57;;;;;;;5.70;2.72;;;20.80;99.90;;;;;;5450751;26;20730;-72
2024/04/14 06:47:23;;;;;;;4.25;2.75;;;20.90;99.90;;;;;;5453147;26;20224;-71
2024/04/14 06:49:49;;;;;;;2.85;2.40;;;21.10;99.90;;;;;;5452175;26;20596;-71
2024/04/14 06:52:14;;;;;;;3.72;2.47;;;21.20;99.90;;;;;;5452408;26;20239;-72
2024/04/14 06:54:40;;;;;;;3.72;2.22;;;21.30;99.90;;;;;;5438018;26;20657;-71
2024/04/14 06:57:05;;;;;;;3.88;2.63;;;21.40;99.90;;;;;;5420987;26;20236;-71
2024/04/14 06:59:31;;;;;;;10.07;2.35;;;21.50;99.90;;;;;;5419400;26;20347;-72
2024/04/14 07:01:57;;;;;;;2.83;1.90;;;21.50;99.90;;;;;;5452577;26;20282;-71
2024/04/14 07:04:22;;;;;;;3.60;1.90;;;21.50;99.90;;;;;;5449085;26;20327;-72
2024/04/14 07:06:48;;;;;;;5.60;2.00;;;21.40;99.90;;;;;;5449882;26;20282;-72
2024/04/14 07:09:14;;;;;;;5.78;1.92;;;21.50;99.90;;;;;;5451672;26;20228;-71
2024/04/14 07:11:39;;;;;;;3.10;1.90;;;21.40;99.90;;;;;;5420413;26;20326;-72
2024/04/14 07:14:05;;;;;;;4.18;1.50;;;21.60;99.90;;;;;;5448997;26;20343;-72
2024/04/14 07:16:30;;;;;;;2.53;1.80;;;21.60;99.90;;;;;;5449716;26;20239;-72
2024/04/14 07:18:56;;;;;;;3.00;1.98;;;21.70;99.90;;;;;;5452877;26;20231;-71
2024/04/14 07:21:21;;;;;;;2.13;1.58;;;22.00;99.90;;;;;;5439729;26;20229;-72
2024/04/14 07:23:47;;;;;;;2.55;2.30;;;22.20;99.90;;;;;;5415114;26;20255;-71
2024/04/14 07:26:13;;;;;;;2.42;1.98;;;22.30;99.90;;;;;;5442051;26;20298;-71
2024/04/14 07:28:38;;;;;;;2.92;1.85;;;22.30;99.90;;;;;;5451165;26;20235;-72
2024/04/14 07:31:04;;;;;;;2.50;1.75;;;22.40;99.90;;;;;;5445482;26;20335;-72
2024/04/14 07:33:29;;;;;;;2.30;1.73;;;22.50;99.90;;;;;;5452159;26;20275;-72
2024/04/14 07:35:55;;;;;;;2.10;1.90;;;22.50;99.90;;;;;;5440838;26;20227;-72
2024/04/14 07:38:20;;;;;;;4.65;1.85;;;22.50;99.90;;;;;;5451674;26;20590;-72
2024/04/14 07:40:46;;;;;;;2.10;1.52;;;22.50;99.90;;;;;;5418781;26;20324;-72
2024/04/14 07:43:12;;;;;;;4.00;1.48;;;22.70;99.90;;;;;;5452036;26;20236;-72
2024/04/14 07:45:37;;;;;;;1.35;1.25;;;22.80;99.90;;;;;;5453645;26;20909;-72
2024/04/14 07:48:03;;;;;;;2.53;1.80;;;22.80;99.90;;;;;;5411460;26;20344;-71
2024/04/14 07:50:28;;;;;;;3.05;1.50;;;23.00;99.90;;;;;;5447862;26;20232;-71
2024/04/14 07:52:54;;;;;;;2.85;1.70;;;22.90;99.90;;;;;;5446536;26;20232;-75
2024/04/14 07:55:20;;;;;;;3.50;1.33;;;22.90;99.90;;;;;;5444426;26;20432;-72
2024/04/14 07:57:45;;;;;;;2.38;1.98;;;22.90;99.90;;;;;;5443085;26;20245;-72
2024/04/14 08:00:11;;;;;;;2.35;1.50;;;23.00;99.90;;;;;;5407127;26;20359;-73
2024/04/14 08:02:37;;;;;;;2.83;1.67;;;23.00;99.90;;;;;;5446513;26;20320;-71
2024/04/14 08:05:03;;;;;;;1.73;1.33;;;23.10;99.90;;;;;;5449753;26;20243;-72
2024/04/14 08:07:28;;;;;;;4.53;1.85;;;23.30;99.90;;;;;;5448899;26;20251;-71
2024/04/14 08:09:54;;;;;;;3.00;1.60;;;23.40;99.90;;;;;;5416976;26;20255;-71
2024/04/14 08:12:20;;;;;;;4.47;1.50;;;23.30;99.90;;;;;;5450266;26;21775;-71
2024/04/14 08:14:46;;;;;;;9.00;2.17;;;23.40;99.90;;;;;;5449882;26;20280;-72
2024/04/14 08:17:12;;;;;;;1.77;1.52;;;23.70;99.90;;;;;;5449485;26;20263;-71
2024/04/14 08:19:39;;;;;;;5.80;1.55;;;23.90;99.90;;;;;;5449716;26;20231;-71
2024/04/14 08:22:05;;;;;;;4.10;1.85;;;24.10;99.90;;;;;;5449560;26;20599;-71
2024/04/14 08:24:31;;;;;;;3.75;1.85;;;24.00;99.90;;;;;;5448630;26;20274;-72
2024/04/14 08:26:56;;;;;;;4.40;1.67;;;24.00;99.90;;;;;;5454705;26;20324;-72
2024/04/14 08:29:22;;;;;;;2.63;1.75;;;24.00;99.90;;;;;;5419900;26;20251;-72
2024/04/14 08:31:48;;;;;;;3.53;1.80;;;24.10;99.90;;;;;;5416018;26;20688;-73
2024/04/14 08:34:13;;;;;;;4.45;2.38;;;24.20;99.90;;;;;;5440373;26;20235;-72
2024/04/14 08:36:39;;;;;;;3.35;1.50;;;24.20;99.90;;;;;;5450179;26;20352;-72
2024/04/14 08:39:05;;;;;;;2.95;1.85;;;24.20;99.90;;;;;;5450427;26;20378;-73
2024/04/14 08:41:35;;;;;;;2.53;1.42;;;24.30;99.90;;;;;;5450932;26;20247;-72
2024/04/14 08:44:01;;;;;;;2.35;1.35;;;24.50;99.90;;;;;;5449776;26;20352;-70
2024/04/14 08:46:28;;;;;;;1.80;1.65;;;24.40;99.90;;;;;;5450316;26;20834;-71
2024/04/14 08:48:54;;;;;;;2.88;1.45;;;24.40;99.90;;;;;;5449819;26;20282;-72
2024/04/14 08:51:21;;;;;;;3.15;1.73;;;24.60;99.90;;;;;;5450555;26;20243;-72
2024/04/14 08:53:49;;;;;;;2.13;1.30;;;24.60;99.90;;;;;;5457368;26;20268;-71
2024/04/14 08:56:15;;;;;;;1.63;1.40;;;24.50;99.90;;;;;;5452118;26;20273;-71
2024/04/14 08:58:43;;;;;;;2.03;1.20;;;24.20;99.90;;;;;;5449039;26;20227;-72
2024/04/14 09:01:10;;;;;;;2.08;1.10;;;24.20;99.90;;;;;;5411919;26;20263;-71
2024/04/14 09:03:36;;;;;;;3.42;1.40;;;24.30;99.90;;;;;;5454341;26;20297;-72
2024/04/14 09:06:03;;;;;;;2.28;1.08;;;24.40;99.90;;;;;;5449493;26;20232;-71
2024/04/14 09:08:29;;;;;;;1.00;0.90;;;24.40;99.90;;;;;;5446709;26;20229;-72
2024/04/14 09:10:55;;;;;;;1.73;1.20;;;24.60;99.90;;;;;;5440364;26;20239;-71
2024/04/14 09:13:25;;;;;;;3.63;1.50;;;24.40;99.90;;;;;;5446667;26;20232;-71
2024/04/14 09:15:51;;;;;;;1.52;1.42;;;24.20;99.90;;;;;;5445261;26;20235;-72
2024/04/14 09:18:17;;;;;;;2.13;1.38;;;24.00;99.90;;;;;;5458191;26;20239;-72
2024/04/14 09:20:42;;;;;;;2.15;1.08;;;23.80;99.90;;;;;;5462759;26;20325;-71
2024/04/14 09:23:08;;;;;;;4.72;1.23;;;23.90;99.90;;;;;;5445488;26;20773;-71
2024/04/14 09:25:35;;;;;;;2.50;1.20;;;24.00;99.90;;;;;;5436460;26;20232;-72
2024/04/14 09:28:10;;;;;;;3.10;1.35;;;23.80;99.90;;;;;;5451008;26;20266;-70
2024/04/14 09:30:36;;;;;;;2.17;1.35;;;23.50;99.90;;;;;;5420570;26;20255;-72
2024/04/14 09:33:04;;;;;;;3.38;1.50;;;23.60;99.90;;;;;;5445443;26;20228;-72
2024/04/14 09:35:30;;;;;;;3.08;1.60;;;23.90;99.90;;;;;;5402278;26;20236;-72
2024/04/14 09:37:56;;;;;;;3.17;1.20;;;24.10;99.90;;;;;;5451484;26;20270;-72
2024/04/14 09:40:25;;;;;;;3.85;1.48;;;24.30;99.90;;;;;;5442440;26;20746;-71
2024/04/14 09:42:55;;;;;;;3.35;1.48;;;24.40;99.90;;;;;;5443944;26;20706;-71
2024/04/14 09:45:23;;;;;;;2.70;1.50;;;24.40;99.90;;;;;;5431401;26;20791;-71
2024/04/14 09:47:52;;;;;;;1.75;1.00;;;24.30;99.90;;;;;;5450139;26;20247;-72
2024/04/14 09:50:20;;;;;;;3.20;1.40;;;24.10;99.90;;;;;;5441331;26;20288;-72
2024/04/14 09:52:48;;;;;;;2.17;1.20;;;24.20;99.90;;;;;;5434413;26;20268;-71
2024/04/14 09:55:14;;;;;;;1.85;1.30;;;24.30;99.90;;;;;;5438984;26;20348;-72
2024/04/14 09:57:40;;;;;;;2.45;1.45;;;24.50;99.90;;;;;;5445712;26;20231;-71
2024/04/14 10:00:10;;;;;;;2.30;1.30;;;24.70;99.90;;;;;;5448659;26;20244;-72
2024/04/14 10:02:41;;;;;;;2.17;1.52;;;24.70;99.90;;;;;;5448063;26;20227;-72
2024/04/14 10:05:09;;;;;;;1.77;1.50;;;24.60;99.90;;;;;;5420526;26;20235;-73
2024/04/14 10:07:36;;;;;;;3.22;1.30;;;24.70;99.90;;;;;;5441830;26;20247;-72
2024/04/14 10:10:05;;;;;;;1.70;1.27;;;24.60;99.90;;;;;;5452003;26;20641;-72
2024/04/14 10:12:33;;;;;;;1.90;1.45;;;24.40;99.90;;;;;;5441577;26;20357;-72
2024/04/14 10:15:05;;;;;;;3.58;1.42;;;24.10;99.90;;;;;;5408763;26;20270;-71
2024/04/14 10:17:32;;;;;;;1.10;1.00;;;24.00;99.90;;;;;;5423350;26;20271;-72
2024/04/14 10:20:05;;;;;;;3.90;1.45;;;23.90;99.90;;;;;;5450232;26;20638;-72
2024/04/14 10:22:39;;;;;;;3.47;1.42;;;23.80;99.90;;;;;;5451335;26;20227;-72
2024/04/14 10:25:28;;;;;;;2.75;1.58;;;23.70;99.90;;;;;;5451168;26;20321;-74
2024/04/14 10:27:54;;;;;;;2.40;1.38;;;23.70;99.90;;;;;;5451127;26;20276;-72
2024/04/14 10:30:24;;;;;;;4.97;1.38;;;23.80;99.90;;;;;;5446086;26;20303;-72
2024/04/14 10:33:07;;;;;;;1.52;1.17;;;24.00;99.90;;;;;;5405599;26;20262;-71
2024/04/14 10:35:33;;;;;;;1.15;0.93;;;24.00;99.90;;;;;;5437009;26;20239;-71
2024/04/14 10:37:59;;;;;;;2.20;1.20;;;24.00;99.90;;;;;;5416606;26;20243;-72
2024/04/14 10:40:25;;;;;;;2.67;1.42;;;24.00;99.90;;;;;;5446587;26;20243;-71
2024/04/14 10:42:50;;;;;;;3.92;1.35;;;23.90;99.90;;;;;;5419618;26;20236;-72
2024/04/14 10:45:29;;;;;;;1.75;1.25;;;23.90;99.90;;;;;;5452923;26;20282;-71
2024/04/14 10:47:58;;;;;;;1.80;1.40;;;23.80;99.90;;;;;;5450320;26;20285;-71
2024/04/14 10:50:27;;;;;;;1.77;1.17;;;23.80;99.90;;;;;;5448811;26;20255;-72
2024/04/14 10:52:53;;;;;;;2.75;1.63;;;23.80;99.90;;;;;;5456784;26;20240;-73
2024/04/14 10:55:19;;;;;;;6.43;1.92;;;23.80;99.90;;;;;;5451106;26;20727;-71
2024/04/14 10:57:44;;;;;;;2.17;1.60;;;23.90;99.90;;;;;;5448923;26;20760;-73
2024/04/14 11:00:11;;;;;;;5.45;2.28;;;23.90;99.90;;;;;;5447787;26;20282;-73
2024/04/14 11:02:37;;;;;;;3.00;1.63;;;23.80;99.90;;;;;;5446919;26;20240;-72
2024/04/14 11:05:04;;;;;;;1.20;1.10;;;23.80;99.90;;;;;;5448148;26;20311;-72
2024/04/14 11:07:29;;;;;;;2.17;1.50;;;23.80;99.90;;;;;;5432285;26;20277;-74
2024/04/14 11:09:56;;;;;;;3.42;1.95;;;23.80;99.90;;;;;;5443832;26;20235;-72
2024/04/14 11:12:22;;;;;;;3.30;1.33;;;23.80;99.90;;;;;;5436441;26;20603;-73
2024/04/14 11:14:48;;;;;;;7.25;1.70;;;23.90;99.90;;;;;;5403350;26;20235;-72
2024/04/14 11:17:13;;;;;;;2.22;1.35;;;23.90;99.90;;;;;;5449987;26;20343;-73
2024/04/14 11:19:39;;;;;;;1.55;1.25;;;23.90;99.90;;;;;;5452820;26;20232;-72
2024/04/14 11:22:05;;;;;;;2.83;2.38;;;23.90;99.90;;;;;;5399594;26;20288;-72
2024/04/14 11:24:35;;;;;;;4.97;1.75;;;23.70;99.90;;;;;;5450590;26;20585;-72
2024/04/14 11:27:00;;;;;;;2.83;1.77;;;23.60;99.90;;;;;;5438105;26;20291;-71
2024/04/14 11:29:26;;;;;;;1.90;1.42;;;23.40;99.90;;;;;;5446944;26;20228;-73
2024/04/14 11:31:52;;;;;;;2.10;1.48;;;23.30;99.90;;;;;;5415985;26;20306;-71
2024/04/14 11:34:18;;;;;;;3.72;1.58;;;23.30;99.90;;;;;;5446727;26;20324;-72
2024/04/14 11:36:47;;;;;;;1.38;1.27;;;23.30;99.90;;;;;;5452130;26;20343;-72
2024/04/14 11:39:13;;;;;;;4.00;2.15;;;23.40;99.90;;;;;;5446593;26;20282;-72
2024/04/14 11:41:39;;;;;;;2.97;1.88;;;23.30;99.90;;;;;;5447277;26;20307;-72
2024/04/14 11:44:06;;;;;;;2.03;1.48;;;23.30;99.90;;;;;;5444921;26;20228;-72
2024/04/14 11:46:32;;;;;;;1.40;1.30;;;23.30;99.90;;;;;;5446953;26;20282;-72
2024/04/14 11:48:58;;;;;;;2.60;1.77;;;23.20;99.90;;;;;;5446482;26;20236;-73
2024/04/14 11:51:23;;;;;;;2.03;1.70;;;23.10;99.90;;;;;;5446696;26;20251;-71
2024/04/14 11:53:49;;;;;;;4.47;1.98;;;23.00;99.90;;;;;;5446845;26;20725;-72
2024/04/14 11:56:15;;;;;;;2.08;1.23;;;23.10;99.90;;;;;;5442095;26;20232;-71
2024/04/14 11:58:40;;;;;;;3.00;1.70;;;23.10;99.90;;;;;;5435213;26;20304;-71
2024/04/14 12:01:06;;;;;;;3.55;1.60;;;23.10;99.90;;;;;;5435477;26;20243;-70
2024/04/14 12:03:32;;;;;;;2.00;1.50;;;23.10;99.90;;;;;;5451521;26;20746;-75
2024/04/14 12:05:57;;;;;;;1.67;1.52;;;23.00;99.90;;;;;;5447523;26;20282;-72
2024/04/14 12:08:23;;;;;;;1.77;1.55;;;23.10;99.90;;;;;;5453191;26;20502;-72
2024/04/14 12:10:49;;;;;;;1.92;1.50;;;23.20;99.90;;;;;;5450544;26;20329;-72
2024/04/14 12:13:14;;;;;;;3.50;1.50;;;23.30;99.90;;;;;;5451306;26;20283;-74
2024/04/14 12:15:40;;;;;;;5.63;1.80;;;23.30;99.90;;;;;;5451462;26;20331;-72
2024/04/14 12:18:06;;;;;;;3.28;1.48;;;23.30;99.90;;;;;;5439665;26;20236;-72
2024/04/14 12:20:31;;;;;;;4.07;2.00;;;23.20;99.90;;;;;;5450642;26;20240;-71
2024/04/14 12:22:57;;;;;;;4.95;1.48;;;23.10;99.90;;;;;;5449278;26;20338;-73
2024/04/14 12:25:23;;;;;;;2.67;1.40;;;23.00;99.90;;;;;;5451003;26;20227;-73
2024/04/14 12:27:48;;;;;;;5.65;1.80;;;22.90;99.90;;;;;;5426535;26;20228;-74
2024/04/14 12:30:14;;;;;;;2.42;1.50;;;22.80;99.90;;;;;;5452018;26;20244;-73
2024/04/14 12:32:41;;;;;;;3.25;1.75;;;22.80;99.90;;;;;;5450359;26;20224;-73
2024/04/14 12:35:07;;;;;;;1.90;1.25;;;22.70;99.90;;;;;;5438496;26;20228;-74
2024/04/14 12:37:33;;;;;;;1.58;1.33;;;22.70;99.90;;;;;;5456111;26;20289;-74
2024/04/14 12:39:58;;;;;;;3.63;1.52;;;22.70;99.90;;;;;;5457416;26;20348;-72
2024/04/14 12:42:24;;;;;;;2.40;1.42;;;22.70;99.90;;;;;;5453503;26;20240;-72